createdAt,value
2019-01-10T00:00:11.410Z,0.00
2019-01-10T00:01:12.004Z,0.00
2019-01-10T00:02:12.652Z,0.00
2019-01-10T00:03:13.232Z,0.00
2019-01-10T00:04:13.893Z,0.00
2019-01-10T00:05:14.477Z,0.00
2019-01-10T00:06:15.140Z,0.00
2019-01-10T00:07:15.723Z,0.00
2019-01-10T00:08:16.448Z,0.00
2019-01-10T00:09:16.973Z,0.00
2019-01-10T00:10:24.178Z,0.00
2019-01-10T00:11:24.767Z,0.00
2019-01-10T00:12:25.426Z,0.00
2019-01-10T00:13:26.006Z,0.00
2019-01-10T00:14:33.629Z,0.00
2019-01-10T00:15:34.211Z,0.00
2019-01-10T00:16:35.899Z,0.00
2019-01-10T00:17:36.477Z,0.00
2019-01-10T00:18:37.138Z,0.00
2019-01-10T00:19:37.724Z,0.00
2019-01-10T00:20:38.381Z,0.00
2019-01-10T00:21:38.959Z,0.00
2019-01-10T00:22:40.646Z,0.00
2019-01-10T00:23:41.227Z,0.00
2019-01-10T00:24:41.890Z,0.00
2019-01-10T00:25:42.473Z,0.00
2019-01-10T00:26:43.138Z,0.00
2019-01-10T00:27:43.712Z,0.00
2019-01-10T00:28:45.397Z,0.00
2019-01-10T00:29:45.979Z,0.00
2019-01-10T00:30:47.663Z,0.00
2019-01-10T00:31:48.246Z,0.00
2019-01-10T00:32:48.907Z,0.00
2019-01-10T00:33:49.491Z,0.00
2019-01-10T00:34:50.156Z,0.00
2019-01-10T00:35:50.737Z,0.00
2019-01-10T00:36:51.389Z,0.00
2019-01-10T00:37:51.959Z,0.00
2019-01-10T00:38:53.671Z,0.00
2019-01-10T00:39:54.228Z,0.00
2019-01-10T00:40:54.886Z,0.00
2019-01-10T00:41:55.472Z,0.00
2019-01-10T00:42:56.136Z,0.00
2019-01-10T00:43:56.713Z,0.00
2019-01-10T00:44:57.371Z,0.00
2019-01-10T00:45:57.946Z,0.00
2019-01-10T00:47:00.565Z,0.00
2019-01-10T00:48:01.147Z,0.00
2019-01-10T00:49:02.835Z,0.00
2019-01-10T00:50:03.410Z,0.00
2019-01-10T00:51:06.020Z,0.00
2019-01-10T00:52:06.601Z,0.00
2019-01-10T00:53:07.258Z,0.00
2019-01-10T00:54:07.838Z,0.00
2019-01-10T00:55:08.501Z,0.00
2019-01-10T00:56:09.079Z,0.00
2019-01-10T00:57:09.744Z,0.00
2019-01-10T00:58:10.326Z,0.00
2019-01-10T00:59:10.905Z,0.00
2019-01-10T01:00:11.494Z,0.00
2019-01-10T01:01:12.124Z,0.00
2019-01-10T01:02:14.586Z,0.00
2019-01-10T01:03:15.171Z,0.00
2019-01-10T01:04:15.755Z,0.00
2019-01-10T01:05:16.356Z,0.00
2019-01-10T01:06:16.933Z,0.00
2019-01-10T01:07:17.595Z,0.00
2019-01-10T01:08:18.176Z,0.00
2019-01-10T01:09:18.845Z,0.00
2019-01-10T01:10:19.475Z,0.00
2019-01-10T01:11:20.083Z,0.00
2019-01-10T01:12:20.666Z,0.00
2019-01-10T01:13:21.305Z,0.00
2019-01-10T01:14:21.879Z,0.00
2019-01-10T01:15:22.547Z,0.00
2019-01-10T01:16:23.121Z,0.00
2019-01-10T01:17:23.791Z,0.00
2019-01-10T01:18:24.374Z,0.00
2019-01-10T01:19:25.039Z,0.00
2019-01-10T01:20:25.639Z,0.00
2019-01-10T01:21:26.275Z,0.00
2019-01-10T01:22:26.854Z,0.00
2019-01-10T01:23:27.438Z,0.00
2019-01-10T01:24:28.032Z,0.00
2019-01-10T01:25:28.670Z,0.00
2019-01-10T01:26:29.249Z,0.00
2019-01-10T01:27:29.905Z,0.00
2019-01-10T01:28:30.483Z,0.00
2019-01-10T01:29:31.155Z,0.00
2019-01-10T01:30:31.729Z,0.00
2019-01-10T01:31:32.391Z,0.00
2019-01-10T01:32:32.969Z,0.00
2019-01-10T01:33:33.634Z,0.00
2019-01-10T01:34:34.212Z,0.00
2019-01-10T01:35:34.883Z,0.00
2019-01-10T01:36:35.466Z,0.00
2019-01-10T01:37:36.130Z,0.00
2019-01-10T01:38:36.705Z,0.00
2019-01-10T01:39:37.360Z,0.00
2019-01-10T01:40:37.938Z,0.00
2019-01-10T01:41:39.617Z,0.00
2019-01-10T01:42:40.193Z,0.00
2019-01-10T01:43:40.854Z,0.00
2019-01-10T01:44:41.454Z,0.00
2019-01-10T01:45:42.099Z,0.00
2019-01-10T01:46:42.682Z,0.00
2019-01-10T01:47:43.338Z,0.00
2019-01-10T01:48:43.925Z,0.00
2019-01-10T01:49:44.583Z,0.00
2019-01-10T01:50:45.168Z,0.00
2019-01-10T01:51:45.822Z,0.00
2019-01-10T01:52:46.408Z,0.00
2019-01-10T01:53:47.072Z,0.00
2019-01-10T01:54:47.654Z,0.00
2019-01-10T01:55:48.309Z,0.00
2019-01-10T01:56:48.889Z,0.00
2019-01-10T01:57:49.553Z,0.00
2019-01-10T01:58:50.132Z,0.00
2019-01-10T01:59:50.803Z,0.00
2019-01-10T02:00:51.384Z,0.00
2019-01-10T02:01:52.039Z,0.00
2019-01-10T02:02:52.631Z,0.00
2019-01-10T02:03:53.291Z,0.00
2019-01-10T02:04:53.863Z,0.00
2019-01-10T02:05:54.522Z,0.00
2019-01-10T02:06:55.107Z,0.00
2019-01-10T02:07:55.766Z,0.00
2019-01-10T02:08:57.823Z,0.00
2019-01-10T02:09:57.009Z,0.00
2019-01-10T02:10:57.587Z,0.00
2019-01-10T02:11:58.249Z,0.00
2019-01-10T02:12:58.838Z,0.00
2019-01-10T02:13:59.498Z,0.00
2019-01-10T02:15:00.101Z,0.00
2019-01-10T02:16:00.660Z,0.00
2019-01-10T02:17:01.251Z,0.00
2019-01-10T02:18:01.849Z,0.00
2019-01-10T02:19:02.499Z,0.00
2019-01-10T02:20:03.075Z,0.00
2019-01-10T02:21:03.739Z,0.00
2019-01-10T02:22:04.317Z,0.00
2019-01-10T02:23:04.992Z,0.00
2019-01-10T02:24:05.570Z,0.00
2019-01-10T02:25:06.157Z,0.00
2019-01-10T02:26:06.742Z,0.00
2019-01-10T02:27:07.338Z,0.00
2019-01-10T02:28:08.000Z,0.00
2019-01-10T02:29:08.565Z,0.00
2019-01-10T02:30:09.244Z,0.00
2019-01-10T02:31:09.825Z,0.00
2019-01-10T02:32:10.487Z,0.00
2019-01-10T02:33:11.062Z,0.00
2019-01-10T02:34:11.736Z,0.00
2019-01-10T02:35:12.296Z,0.00
2019-01-10T02:36:12.951Z,0.00
2019-01-10T02:37:13.541Z,0.00
2019-01-10T02:38:14.209Z,0.00
2019-01-10T02:39:14.823Z,0.00
2019-01-10T02:40:15.489Z,0.00
2019-01-10T02:41:16.022Z,0.00
2019-01-10T02:42:16.689Z,0.00
2019-01-10T02:43:26.154Z,0.00
2019-01-10T02:44:17.929Z,0.00
2019-01-10T02:45:18.591Z,0.00
2019-01-10T02:46:19.177Z,0.00
2019-01-10T02:47:19.753Z,0.00
2019-01-10T02:48:20.339Z,0.00
2019-01-10T02:49:20.935Z,0.00
2019-01-10T02:50:21.519Z,0.00
2019-01-10T02:51:22.178Z,0.00
2019-01-10T02:52:22.757Z,0.00
2019-01-10T02:53:23.420Z,0.00
2019-01-10T02:54:24.041Z,0.00
2019-01-10T02:55:24.668Z,0.00
2019-01-10T02:56:25.241Z,0.00
2019-01-10T02:57:25.927Z,0.00
2019-01-10T02:58:26.487Z,0.00
2019-01-10T02:59:27.151Z,0.00
2019-01-10T03:00:27.729Z,0.00
2019-01-10T03:01:28.399Z,0.00
2019-01-10T03:02:28.977Z,0.00
2019-01-10T03:03:29.648Z,0.00
2019-01-10T03:04:30.231Z,0.00
2019-01-10T03:05:30.882Z,0.00
2019-01-10T03:06:31.455Z,0.00
2019-01-10T03:07:32.117Z,0.00
2019-01-10T03:08:32.711Z,0.00
2019-01-10T03:09:33.360Z,0.00
2019-01-10T03:10:33.942Z,0.00
2019-01-10T03:11:34.610Z,0.00
2019-01-10T03:12:35.196Z,0.00
2019-01-10T03:13:36.897Z,0.00
2019-01-10T03:14:36.429Z,0.00
2019-01-10T03:15:37.086Z,0.00
2019-01-10T03:16:37.668Z,0.00
2019-01-10T03:17:38.334Z,0.00
2019-01-10T03:18:38.913Z,0.00
2019-01-10T03:19:39.573Z,0.00
2019-01-10T03:20:40.161Z,0.00
2019-01-10T03:21:40.811Z,0.00
2019-01-10T03:22:41.403Z,0.00
2019-01-10T03:23:41.979Z,0.00
2019-01-10T03:24:42.573Z,0.00
2019-01-10T03:25:43.202Z,0.00
2019-01-10T03:26:43.781Z,0.00
2019-01-10T03:27:44.436Z,0.00
2019-01-10T03:28:45.023Z,0.00
2019-01-10T03:29:45.693Z,0.00
2019-01-10T03:30:46.269Z,0.00
2019-01-10T03:31:46.927Z,0.00
2019-01-10T03:32:47.511Z,0.00
2019-01-10T03:33:48.188Z,0.00
2019-01-10T03:34:48.769Z,0.00
2019-01-10T03:35:49.411Z,0.00
2019-01-10T03:36:50.003Z,0.00
2019-01-10T03:37:50.577Z,0.00
2019-01-10T03:38:51.165Z,0.00
2019-01-10T03:39:51.757Z,0.00
2019-01-10T03:40:52.409Z,0.00
2019-01-10T03:41:53.022Z,0.00
2019-01-10T03:42:53.663Z,0.00
2019-01-10T03:43:54.248Z,0.00
2019-01-10T03:44:54.895Z,0.00
2019-01-10T03:45:55.494Z,0.00
2019-01-10T03:46:56.136Z,0.00
2019-01-10T03:47:56.720Z,0.00
2019-01-10T03:48:57.354Z,0.00
2019-01-10T03:49:57.935Z,0.00
2019-01-10T03:50:58.565Z,0.00
2019-01-10T03:51:59.162Z,0.00
2019-01-10T03:53:14.662Z,0.00
2019-01-10T03:54:15.244Z,0.00
2019-01-10T03:55:16.931Z,0.00
2019-01-10T03:56:17.516Z,0.00
2019-01-10T03:57:18.095Z,0.00
2019-01-10T03:58:19.716Z,0.00
2019-01-10T03:59:20.294Z,0.00
2019-01-10T04:00:20.956Z,0.00
2019-01-10T04:01:21.537Z,0.00
2019-01-10T04:02:23.223Z,0.00
2019-01-10T04:03:23.803Z,0.00
2019-01-10T04:04:26.412Z,0.00
2019-01-10T04:05:27.011Z,0.00
2019-01-10T04:06:27.662Z,0.00
2019-01-10T04:07:28.244Z,0.00
2019-01-10T04:08:30.947Z,0.00
2019-01-10T04:09:31.525Z,0.00
2019-01-10T04:10:33.210Z,0.00
2019-01-10T04:11:33.789Z,0.00
2019-01-10T04:12:34.453Z,0.00
2019-01-10T04:13:35.036Z,0.00
2019-01-10T04:14:35.698Z,0.00
2019-01-10T04:15:36.273Z,0.00
2019-01-10T04:16:36.942Z,0.00
2019-01-10T04:17:37.518Z,0.00
2019-01-10T04:18:45.151Z,0.00
2019-01-10T04:19:45.733Z,0.00
2019-01-10T04:20:46.387Z,0.00
2019-01-10T04:21:46.967Z,0.00
2019-01-10T04:22:47.625Z,0.00
2019-01-10T04:23:48.209Z,0.00
2019-01-10T04:24:55.666Z,0.00
2019-01-10T04:25:56.219Z,0.00
2019-01-10T04:26:57.896Z,0.00
2019-01-10T04:27:58.490Z,0.00
2019-01-10T04:29:05.692Z,0.00
2019-01-10T04:30:06.303Z,0.00
2019-01-10T04:31:06.900Z,0.00
2019-01-10T04:32:07.473Z,0.00
2019-01-10T04:33:08.167Z,0.00
2019-01-10T04:34:08.751Z,0.00
2019-01-10T04:35:09.409Z,0.00
2019-01-10T04:36:09.990Z,0.00
2019-01-10T04:37:10.650Z,0.00
2019-01-10T04:38:11.234Z,0.00
2019-01-10T04:39:11.891Z,0.00
2019-01-10T04:40:12.481Z,0.00
2019-01-10T04:41:13.143Z,0.00
2019-01-10T04:42:13.724Z,0.00
2019-01-10T04:43:14.377Z,0.00
2019-01-10T04:44:14.964Z,0.00
2019-01-10T04:45:15.625Z,0.00
2019-01-10T04:46:16.205Z,0.00
2019-01-10T04:47:16.866Z,0.00
2019-01-10T04:48:17.450Z,0.00
2019-01-10T04:49:18.112Z,0.00
2019-01-10T04:50:18.718Z,0.00
2019-01-10T04:51:19.349Z,0.00
2019-01-10T04:52:19.930Z,0.00
2019-01-10T04:53:20.593Z,0.00
2019-01-10T04:54:21.172Z,0.00
2019-01-10T04:55:21.752Z,0.00
2019-01-10T04:56:22.363Z,0.00
2019-01-10T04:57:22.940Z,0.00
2019-01-10T04:58:23.610Z,0.00
2019-01-10T04:59:24.179Z,0.00
2019-01-10T05:00:24.757Z,0.00
2019-01-10T05:01:25.375Z,0.00
2019-01-10T05:02:25.956Z,0.00
2019-01-10T05:03:26.540Z,0.00
2019-01-10T05:04:27.216Z,0.00
2019-01-10T05:05:27.782Z,0.00
2019-01-10T05:06:28.441Z,0.00
2019-01-10T05:07:29.042Z,0.00
2019-01-10T05:08:29.689Z,0.00
2019-01-10T05:09:30.270Z,0.00
2019-01-10T05:10:30.929Z,0.00
2019-01-10T05:11:31.507Z,0.00
2019-01-10T05:12:32.172Z,0.00
2019-01-10T05:13:32.752Z,0.00
2019-01-10T05:14:33.412Z,0.00
2019-01-10T05:15:33.993Z,0.00
2019-01-10T05:16:34.655Z,0.00
2019-01-10T05:17:35.251Z,0.00
2019-01-10T05:18:35.901Z,0.00
2019-01-10T05:19:36.495Z,0.00
2019-01-10T05:20:38.163Z,0.00
2019-01-10T05:21:38.743Z,0.00
2019-01-10T05:22:39.405Z,0.00
2019-01-10T05:23:39.988Z,0.00
2019-01-10T05:24:40.569Z,0.00
2019-01-10T05:25:41.153Z,0.00
2019-01-10T05:26:41.793Z,0.00
2019-01-10T05:27:42.367Z,0.00
2019-01-10T05:28:43.034Z,0.00
2019-01-10T05:29:43.619Z,0.00
2019-01-10T05:30:44.282Z,0.00
2019-01-10T05:31:44.862Z,0.00
2019-01-10T05:32:45.529Z,0.00
2019-01-10T05:33:46.106Z,0.00
2019-01-10T05:34:46.762Z,0.00
2019-01-10T05:35:47.344Z,0.00
2019-01-10T05:36:48.007Z,0.00
2019-01-10T05:37:48.586Z,0.00
2019-01-10T05:38:49.250Z,0.00
2019-01-10T05:39:49.830Z,0.00
2019-01-10T05:40:50.488Z,0.00
2019-01-10T05:41:51.078Z,0.00
2019-01-10T05:42:51.738Z,0.00
2019-01-10T05:43:52.312Z,0.00
2019-01-10T05:44:52.974Z,0.00
2019-01-10T05:45:53.553Z,0.00
2019-01-10T05:46:54.215Z,0.00
2019-01-10T05:47:54.798Z,0.00
2019-01-10T05:48:55.463Z,0.00
2019-01-10T05:49:56.039Z,0.00
2019-01-10T05:50:56.704Z,0.00
2019-01-10T05:51:57.286Z,0.00
2019-01-10T05:52:57.973Z,0.00
2019-01-10T05:53:58.533Z,0.00
2019-01-10T05:54:59.099Z,0.00
2019-01-10T05:55:59.757Z,0.00
2019-01-10T05:57:00.336Z,0.00
2019-01-10T05:58:01.002Z,0.00
2019-01-10T05:59:01.581Z,0.00
2019-01-10T06:00:02.246Z,0.00
2019-01-10T06:01:02.816Z,0.00
2019-01-10T06:02:03.489Z,0.00
2019-01-10T06:03:04.176Z,0.00
2019-01-10T06:04:04.730Z,0.00
2019-01-10T06:05:05.307Z,0.00
2019-01-10T06:06:05.964Z,0.00
2019-01-10T06:07:06.550Z,0.00
2019-01-10T06:08:07.213Z,0.00
2019-01-10T06:09:07.787Z,0.00
2019-01-10T06:10:08.455Z,0.00
2019-01-10T06:11:09.034Z,0.00
2019-01-10T06:12:09.692Z,0.00
2019-01-10T06:13:10.264Z,0.00
2019-01-10T06:14:10.934Z,0.00
2019-01-10T06:15:11.519Z,0.00
2019-01-10T06:16:12.092Z,0.00
2019-01-10T06:17:12.761Z,0.00
2019-01-10T06:18:13.345Z,0.00
2019-01-10T06:19:13.998Z,0.00
2019-01-10T06:20:14.583Z,0.00
2019-01-10T06:21:15.241Z,0.00
2019-01-10T06:22:15.823Z,0.00
2019-01-10T06:23:17.983Z,0.00
2019-01-10T06:24:17.067Z,0.00
2019-01-10T06:25:17.745Z,0.00
2019-01-10T06:26:18.317Z,0.00
2019-01-10T06:27:18.984Z,0.00
2019-01-10T06:28:19.565Z,0.00
2019-01-10T06:29:20.226Z,0.00
2019-01-10T06:30:20.806Z,0.00
2019-01-10T06:31:21.462Z,0.00
2019-01-10T06:32:22.042Z,0.00
2019-01-10T06:33:22.721Z,0.00
2019-01-10T06:34:23.289Z,0.00
2019-01-10T06:35:23.949Z,0.00
2019-01-10T06:36:24.534Z,0.00
2019-01-10T06:37:25.206Z,0.00
2019-01-10T06:38:25.786Z,0.00
2019-01-10T06:39:26.434Z,0.00
2019-01-10T06:40:27.015Z,0.00
2019-01-10T06:41:27.677Z,0.00
2019-01-10T06:42:28.259Z,0.00
2019-01-10T06:43:28.919Z,0.00
2019-01-10T06:44:29.588Z,0.00
2019-01-10T06:45:30.271Z,0.00
2019-01-10T06:46:31.265Z,0.00
2019-01-10T06:47:31.503Z,0.00
2019-01-10T06:48:32.086Z,0.00
2019-01-10T06:49:32.749Z,0.00
2019-01-10T06:50:33.335Z,0.00
2019-01-10T06:51:36.174Z,0.00
2019-01-10T06:52:34.585Z,0.00
2019-01-10T06:53:35.244Z,0.00
2019-01-10T06:54:35.825Z,0.00
2019-01-10T06:55:36.481Z,0.00
2019-01-10T06:56:37.079Z,0.00
2019-01-10T06:57:37.647Z,0.00
2019-01-10T06:58:38.232Z,0.00
2019-01-10T06:59:38.804Z,0.00
2019-01-10T07:00:39.481Z,0.00
2019-01-10T07:01:40.066Z,0.00
2019-01-10T07:02:40.727Z,0.00
2019-01-10T07:03:41.312Z,0.00
2019-01-10T07:04:41.983Z,0.00
2019-01-10T07:05:42.556Z,0.00
2019-01-10T07:06:43.206Z,0.00
2019-01-10T07:07:43.793Z,0.00
2019-01-10T07:08:44.455Z,4.00
2019-01-10T07:09:45.049Z,4.00
2019-01-10T07:10:45.690Z,0.00
2019-01-10T07:11:46.282Z,0.00
2019-01-10T07:12:46.936Z,4.00
2019-01-10T07:13:47.521Z,4.00
2019-01-10T07:14:53.531Z,4.00
2019-01-10T07:15:48.763Z,4.00
2019-01-10T07:16:53.691Z,4.00
2019-01-10T07:17:50.006Z,4.00
2019-01-10T07:18:50.672Z,4.00
2019-01-10T07:19:51.246Z,4.00
2019-01-10T07:20:52.236Z,4.00
2019-01-10T07:21:52.459Z,8.00
2019-01-10T07:22:53.119Z,8.00
2019-01-10T07:23:53.706Z,8.00
2019-01-10T07:24:54.375Z,8.00
2019-01-10T07:25:54.956Z,8.00
2019-01-10T07:26:55.537Z,12.00
2019-01-10T07:27:56.692Z,12.00
2019-01-10T07:28:56.803Z,16.00
2019-01-10T07:29:59.584Z,20.00
2019-01-10T07:30:58.046Z,24.00
2019-01-10T07:31:58.715Z,28.00
2019-01-10T07:32:59.325Z,28.00
2019-01-10T07:33:59.955Z,32.00
2019-01-10T07:35:00.531Z,32.00
2019-01-10T07:36:01.089Z,32.00
2019-01-10T07:37:01.673Z,40.00
2019-01-10T07:38:02.340Z,40.00
2019-01-10T07:39:02.939Z,44.00
2019-01-10T07:40:03.574Z,48.00
2019-01-10T07:41:04.154Z,48.00
2019-01-10T07:42:04.818Z,52.00
2019-01-10T07:43:05.396Z,52.00
2019-01-10T07:44:06.063Z,56.00
2019-01-10T07:45:06.645Z,60.00
2019-01-10T07:46:07.302Z,60.00
2019-01-10T07:47:08.263Z,64.00
2019-01-10T07:48:08.540Z,72.00
2019-01-10T07:49:09.124Z,76.00
2019-01-10T07:50:09.786Z,80.00
2019-01-10T07:51:10.380Z,80.00
2019-01-10T07:52:11.030Z,88.00
2019-01-10T07:53:11.610Z,96.00
2019-01-10T07:54:12.271Z,104.00
2019-01-10T07:55:12.864Z,112.00
2019-01-10T07:56:13.472Z,120.00
2019-01-10T07:57:14.077Z,128.00
2019-01-10T07:58:14.685Z,132.00
2019-01-10T07:59:15.257Z,136.00
2019-01-10T08:00:16.930Z,140.00
2019-01-10T08:01:17.531Z,136.00
2019-01-10T08:02:18.179Z,140.00
2019-01-10T08:03:18.759Z,140.00
2019-01-10T08:04:20.482Z,148.00
2019-01-10T08:05:21.040Z,152.00
2019-01-10T08:06:21.703Z,160.00
2019-01-10T08:07:22.310Z,160.00
2019-01-10T08:08:22.937Z,168.00
2019-01-10T08:09:23.532Z,172.00
2019-01-10T08:10:24.190Z,180.00
2019-01-10T08:11:24.775Z,188.00
2019-01-10T08:12:25.419Z,200.00
2019-01-10T08:13:26.010Z,212.00
2019-01-10T08:14:26.662Z,224.00
2019-01-10T08:15:27.255Z,240.00
2019-01-10T08:16:27.832Z,244.00
2019-01-10T08:17:28.407Z,248.00
2019-01-10T08:18:31.092Z,260.00
2019-01-10T08:19:31.679Z,276.00
2019-01-10T08:20:32.333Z,292.00
2019-01-10T08:21:32.913Z,300.00
2019-01-10T08:22:33.494Z,316.00
2019-01-10T08:23:34.096Z,328.00
2019-01-10T08:24:34.676Z,344.00
2019-01-10T08:25:35.301Z,360.00
2019-01-10T08:26:35.884Z,376.00
2019-01-10T08:27:36.548Z,400.00
2019-01-10T08:28:37.141Z,424.00
2019-01-10T08:29:37.791Z,440.00
2019-01-10T08:30:38.367Z,444.00
2019-01-10T08:31:39.038Z,420.00
2019-01-10T08:32:39.621Z,400.00
2019-01-10T08:33:40.223Z,388.00
2019-01-10T08:34:40.793Z,400.00
2019-01-10T08:35:41.407Z,444.00
2019-01-10T08:36:41.962Z,488.00
2019-01-10T08:37:42.661Z,508.00
2019-01-10T08:38:43.246Z,520.00
2019-01-10T08:39:43.821Z,528.00
2019-01-10T08:40:44.419Z,524.00
2019-01-10T08:41:44.987Z,524.00
2019-01-10T08:42:45.673Z,540.00
2019-01-10T08:43:46.251Z,560.00
2019-01-10T08:44:47.958Z,600.00
2019-01-10T08:45:48.514Z,628.00
2019-01-10T08:46:49.172Z,652.00
2019-01-10T08:47:49.757Z,680.00
2019-01-10T08:48:50.416Z,696.00
2019-01-10T08:49:50.998Z,708.00
2019-01-10T08:50:51.575Z,708.00
2019-01-10T08:51:52.153Z,744.00
2019-01-10T08:52:52.745Z,780.00
2019-01-10T08:53:54.085Z,844.00
2019-01-10T08:54:54.017Z,924.00
2019-01-10T08:55:54.694Z,984.00
2019-01-10T08:56:55.296Z,1032.00
2019-01-10T08:57:56.008Z,1064.00
2019-01-10T08:58:56.658Z,1104.00
2019-01-10T08:59:57.358Z,1152.00
2019-01-10T09:00:57.987Z,1212.00
2019-01-10T09:01:58.637Z,1260.00
2019-01-10T09:02:59.306Z,1296.00
2019-01-10T09:03:59.954Z,1288.00
2019-01-10T09:05:00.595Z,1296.00
2019-01-10T09:06:08.031Z,1320.00
2019-01-10T09:07:01.860Z,1364.00
2019-01-10T09:08:02.500Z,1420.00
2019-01-10T09:09:03.121Z,1472.00
2019-01-10T09:10:03.766Z,1528.00
2019-01-10T09:11:04.432Z,1540.00
2019-01-10T09:12:05.053Z,1564.00
2019-01-10T09:13:05.690Z,1588.00
2019-01-10T09:14:06.350Z,1596.00
2019-01-10T09:15:06.990Z,1536.00
2019-01-10T09:16:08.747Z,1484.00
2019-01-10T09:17:09.382Z,1420.00
2019-01-10T09:18:11.102Z,1336.00
2019-01-10T09:19:11.729Z,1272.00
2019-01-10T09:20:12.439Z,1240.00
2019-01-10T09:21:13.069Z,1220.00
2019-01-10T09:22:20.642Z,1188.00
2019-01-10T09:23:21.285Z,1124.00
2019-01-10T09:24:21.980Z,1068.00
2019-01-10T09:25:22.620Z,1024.00
2019-01-10T09:26:23.349Z,1008.00
2019-01-10T09:27:23.929Z,1020.00
2019-01-10T09:28:24.577Z,1076.00
2019-01-10T09:29:25.216Z,1168.00
2019-01-10T09:30:25.897Z,1204.00
2019-01-10T09:31:26.527Z,1180.00
2019-01-10T09:32:27.247Z,1168.00
2019-01-10T09:33:27.882Z,1168.00
2019-01-10T09:34:28.585Z,1208.00
2019-01-10T09:35:29.234Z,1288.00
2019-01-10T09:36:29.959Z,1336.00
2019-01-10T09:37:30.591Z,1424.00
2019-01-10T09:38:32.284Z,1544.00
2019-01-10T09:39:32.920Z,1608.00
2019-01-10T09:40:33.642Z,1712.00
2019-01-10T09:41:34.281Z,1896.00
2019-01-10T09:42:34.977Z,2100.00
2019-01-10T09:43:35.611Z,2276.00
2019-01-10T09:44:38.114Z,2284.00
2019-01-10T09:45:43.340Z,2136.00
2019-01-10T09:46:39.444Z,2004.00
2019-01-10T09:47:40.096Z,1868.00
2019-01-10T09:48:40.814Z,1876.00
2019-01-10T09:49:41.452Z,1940.00
2019-01-10T09:50:42.139Z,1912.00
2019-01-10T09:51:42.846Z,1904.00
2019-01-10T09:52:43.595Z,1916.00
2019-01-10T09:53:44.261Z,1876.00
2019-01-10T09:54:44.936Z,1776.00
2019-01-10T09:55:45.565Z,1700.00
2019-01-10T09:56:46.273Z,1696.00
2019-01-10T09:57:46.906Z,1744.00
2019-01-10T09:58:47.641Z,1756.00
2019-01-10T09:59:50.275Z,1772.00
2019-01-10T10:00:48.963Z,1796.00
2019-01-10T10:01:49.599Z,1812.00
2019-01-10T10:02:50.242Z,1740.00
2019-01-10T10:03:50.875Z,1700.00
2019-01-10T10:04:51.517Z,1608.00
2019-01-10T10:05:52.158Z,1528.00
2019-01-10T10:06:52.799Z,1488.00
2019-01-10T10:07:53.426Z,1464.00
2019-01-10T10:08:54.055Z,1492.00
2019-01-10T10:09:54.685Z,1528.00
2019-01-10T10:10:55.429Z,1508.00
2019-01-10T10:11:56.067Z,1444.00
2019-01-10T10:12:57.185Z,1480.00
2019-01-10T10:13:57.787Z,1476.00
2019-01-10T10:14:58.514Z,1476.00
2019-01-10T10:15:59.144Z,1432.00
2019-01-10T10:16:59.855Z,1372.00
2019-01-10T10:18:00.492Z,1368.00
2019-01-10T10:19:01.208Z,1384.00
2019-01-10T10:20:01.836Z,1392.00
2019-01-10T10:21:02.541Z,1400.00
2019-01-10T10:22:03.243Z,1368.00
2019-01-10T10:23:03.862Z,1340.00
2019-01-10T10:24:04.489Z,1280.00
2019-01-10T10:25:05.135Z,1220.00
2019-01-10T10:26:05.766Z,1188.00
2019-01-10T10:27:06.403Z,1152.00
2019-01-10T10:28:07.045Z,1092.00
2019-01-10T10:29:07.795Z,1028.00
2019-01-10T10:30:08.454Z,968.00
2019-01-10T10:31:09.074Z,916.00
2019-01-10T10:32:09.824Z,876.00
2019-01-10T10:33:10.465Z,856.00
2019-01-10T10:34:11.099Z,844.00
2019-01-10T10:35:11.739Z,852.00
2019-01-10T10:36:12.416Z,888.00
2019-01-10T10:37:13.049Z,920.00
2019-01-10T10:38:14.799Z,936.00
2019-01-10T10:39:15.421Z,924.00
2019-01-10T10:40:16.131Z,912.00
2019-01-10T10:41:16.773Z,884.00
2019-01-10T10:42:17.416Z,856.00
2019-01-10T10:43:18.046Z,844.00
2019-01-10T10:44:18.681Z,832.00
2019-01-10T10:45:19.315Z,828.00
2019-01-10T10:46:19.959Z,856.00
2019-01-10T10:47:20.781Z,884.00
2019-01-10T10:48:21.418Z,900.00
2019-01-10T10:49:22.194Z,900.00
2019-01-10T10:50:22.827Z,880.00
2019-01-10T10:51:23.636Z,876.00
2019-01-10T10:52:24.284Z,884.00
2019-01-10T10:53:25.086Z,904.00
2019-01-10T10:54:25.727Z,944.00
2019-01-10T10:55:26.430Z,992.00
2019-01-10T10:56:27.072Z,1024.00
2019-01-10T10:57:27.879Z,1060.00
2019-01-10T10:58:28.522Z,1112.00
2019-01-10T10:59:29.228Z,1164.00
2019-01-10T11:00:29.877Z,1232.00
2019-01-10T11:01:30.502Z,1268.00
2019-01-10T11:02:31.253Z,1324.00
2019-01-10T11:03:31.898Z,1368.00
2019-01-10T11:04:32.600Z,1436.00
2019-01-10T11:05:33.241Z,1484.00
2019-01-10T11:06:33.945Z,1504.00
2019-01-10T11:07:34.582Z,1476.00
2019-01-10T11:08:35.212Z,1440.00
2019-01-10T11:09:35.842Z,1440.00
2019-01-10T11:10:36.532Z,1480.00
2019-01-10T11:11:37.176Z,1508.00
2019-01-10T11:12:37.876Z,1544.00
2019-01-10T11:13:38.515Z,1556.00
2019-01-10T11:14:39.951Z,1552.00
2019-01-10T11:15:40.335Z,1596.00
2019-01-10T11:16:41.077Z,1688.00
2019-01-10T11:17:41.722Z,1740.00
2019-01-10T11:18:42.439Z,1752.00
2019-01-10T11:19:43.070Z,1728.00
2019-01-10T11:20:43.768Z,1708.00
2019-01-10T11:21:44.402Z,1716.00
2019-01-10T11:22:45.033Z,1680.00
2019-01-10T11:23:45.678Z,1632.00
2019-01-10T11:24:46.308Z,1636.00
2019-01-10T11:25:46.946Z,1692.00
2019-01-10T11:26:47.587Z,1788.00
2019-01-10T11:27:48.228Z,1820.00
2019-01-10T11:28:48.863Z,1816.00
2019-01-10T11:29:49.490Z,1768.00
2019-01-10T11:30:50.194Z,1820.00
2019-01-10T11:31:50.822Z,1912.00
2019-01-10T11:32:53.623Z,1936.00
2019-01-10T11:33:52.175Z,1892.00
2019-01-10T11:34:52.878Z,1864.00
2019-01-10T11:35:53.528Z,1932.00
2019-01-10T11:36:54.148Z,2000.00
2019-01-10T11:37:54.779Z,1980.00
2019-01-10T11:38:55.415Z,1868.00
2019-01-10T11:39:56.092Z,1776.00
2019-01-10T11:40:56.730Z,1732.00
2019-01-10T11:41:57.432Z,1756.00
2019-01-10T11:42:58.061Z,1820.00
2019-01-10T11:43:58.698Z,1868.00
2019-01-10T11:44:59.326Z,1888.00
2019-01-10T11:45:59.966Z,1856.00
2019-01-10T11:47:00.603Z,1844.00
2019-01-10T11:48:01.318Z,1928.00
2019-01-10T11:49:01.957Z,2060.00
2019-01-10T11:50:02.670Z,2044.00
2019-01-10T11:51:03.328Z,1816.00
2019-01-10T11:52:03.962Z,1668.00
2019-01-10T11:53:04.630Z,1644.00
2019-01-10T11:54:05.263Z,1516.00
2019-01-10T11:55:05.967Z,1496.00
2019-01-10T11:56:06.613Z,1564.00
2019-01-10T11:57:07.441Z,1604.00
2019-01-10T11:58:08.038Z,1588.00
2019-01-10T11:59:08.767Z,1672.00
2019-01-10T12:00:10.489Z,1728.00
2019-01-10T12:01:10.105Z,1724.00
2019-01-10T12:02:10.759Z,1704.00
2019-01-10T12:03:11.412Z,1628.00
2019-01-10T12:04:12.049Z,1508.00
2019-01-10T12:05:12.757Z,1416.00
2019-01-10T12:06:13.395Z,1484.00
2019-01-10T12:07:14.103Z,1684.00
2019-01-10T12:08:14.737Z,1832.00
2019-01-10T12:09:15.449Z,1816.00
2019-01-10T12:10:16.086Z,1736.00
2019-01-10T12:11:16.792Z,1672.00
2019-01-10T12:12:17.433Z,1636.00
2019-01-10T12:13:18.153Z,1660.00
2019-01-10T12:14:18.798Z,1804.00
2019-01-10T12:15:19.483Z,2008.00
2019-01-10T12:16:28.285Z,2028.00
2019-01-10T12:17:20.754Z,2156.00
2019-01-10T12:18:21.501Z,2420.00
2019-01-10T12:19:22.087Z,2476.00
2019-01-10T12:20:22.791Z,2424.00
2019-01-10T12:21:23.426Z,2408.00
2019-01-10T12:22:24.241Z,2396.00
2019-01-10T12:23:24.776Z,2336.00
2019-01-10T12:24:25.502Z,2352.00
2019-01-10T12:25:26.123Z,2288.00
2019-01-10T12:26:26.843Z,2108.00
2019-01-10T12:27:27.457Z,1976.00
2019-01-10T12:28:28.172Z,1976.00
2019-01-10T12:29:36.081Z,1860.00
2019-01-10T12:30:29.513Z,1872.00
2019-01-10T12:31:30.154Z,1976.00
2019-01-10T12:32:30.867Z,1988.00
2019-01-10T12:33:31.499Z,1984.00
2019-01-10T12:34:33.235Z,2032.00
2019-01-10T12:35:33.884Z,2116.00
2019-01-10T12:36:35.548Z,2272.00
2019-01-10T12:37:36.195Z,2304.00
2019-01-10T12:38:36.895Z,2300.00
2019-01-10T12:39:37.539Z,2276.00
2019-01-10T12:40:38.261Z,2280.00
2019-01-10T12:41:38.895Z,2252.00
2019-01-10T12:42:39.583Z,2216.00
2019-01-10T12:43:40.248Z,2068.00
2019-01-10T12:44:40.926Z,1860.00
2019-01-10T12:45:42.066Z,1760.00
2019-01-10T12:46:42.273Z,1800.00
2019-01-10T12:47:42.905Z,1872.00
2019-01-10T12:48:43.602Z,2000.00
2019-01-10T12:49:44.239Z,2188.00
2019-01-10T12:50:44.944Z,2376.00
2019-01-10T12:51:45.587Z,2436.00
2019-01-10T12:52:46.294Z,2384.00
2019-01-10T12:53:46.929Z,2320.00
2019-01-10T12:54:47.638Z,2172.00
2019-01-10T12:55:48.275Z,2112.00
2019-01-10T12:56:48.987Z,2184.00
2019-01-10T12:57:49.624Z,2204.00
2019-01-10T12:58:50.410Z,2148.00
2019-01-10T12:59:51.045Z,1888.00